sensor_id;sensor_type;location;lat;lon;timestamp;temperature;humidity
15156;DHT22;7678;50.058;8.306;2023-09-19T05:00:24;15.10;99.90
15156;DHT22;7678;50.058;8.306;2023-09-19T05:02:57;15.00;99.90
15156;DHT22;7678;50.058;8.306;2023-09-19T05:05:25;14.90;99.90
15156;DHT22;7678;50.058;8.306;2023-09-19T05:07:53;14.90;99.90
15156;DHT22;7678;50.058;8.306;2023-09-19T05:10:22;14.80;99.90
15156;DHT22;7678;50.058;8.306;2023-09-19T05:12:54;14.80;99.90
15156;DHT22;7678;50.058;8.306;2023-09-19T05:15:24;14.80;99.90
15156;DHT22;7678;50.058;8.306;2023-09-19T05:17:52;14.90;99.90
15156;DHT22;7678;50.058;8.306;2023-09-19T05:20:24;15.00;99.90
15156;DHT22;7678;50.058;8.306;2023-09-19T05:23:00;15.00;99.90
15156;DHT22;7678;50.058;8.306;2023-09-19T05:25:35;15.00;99.90
15156;DHT22;7678;50.058;8.306;2023-09-19T05:28:08;15.00;99.90
15156;DHT22;7678;50.058;8.306;2023-09-19T05:30:38;15.00;99.90
15156;DHT22;7678;50.058;8.306;2023-09-19T05:33:07;15.10;99.90
15156;DHT22;7678;50.058;8.306;2023-09-19T06:18:03;15.40;99.90
15156;DHT22;7678;50.058;8.306;2023-09-19T06:20:33;15.30;99.90
15156;DHT22;7678;50.058;8.306;2023-09-19T06:23:03;15.30;99.90
15156;DHT22;7678;50.058;8.306;2023-09-19T06:25:31;15.40;99.90
15156;DHT22;7678;50.058;8.306;2023-09-19T06:27:59;15.40;99.90
15156;DHT22;7678;50.058;8.306;2023-09-19T06:30:30;15.50;99.90
15156;DHT22;7678;50.058;8.306;2023-09-19T06:33:00;15.50;99.90
15156;DHT22;7678;50.058;8.306;2023-09-19T06:35:32;15.50;99.90
15156;DHT22;7678;50.058;8.306;2023-09-19T06:38:02;15.40;99.90
15156;DHT22;7678;50.058;8.306;2023-09-19T06:40:31;15.50;99.90
15156;DHT22;7678;50.058;8.306;2023-09-19T06:42:59;15.50;99.90
15156;DHT22;7678;50.058;8.306;2023-09-19T06:45:29;15.50;99.90
15156;DHT22;7678;50.058;8.306;2023-09-19T06:48:00;15.50;99.90
15156;DHT22;7678;50.058;8.306;2023-09-19T06:50:29;15.60;99.90
15156;DHT22;7678;50.058;8.306;2023-09-19T06:52:57;15.80;99.90
15156;DHT22;7678;50.058;8.306;2023-09-19T06:55:27;15.70;99.90
15156;DHT22;7678;50.058;8.306;2023-09-19T06:57:58;15.70;99.90
15156;DHT22;7678;50.058;8.306;2023-09-19T07:00:27;15.80;99.90
15156;DHT22;7678;50.058;8.306;2023-09-19T07:03:00;15.90;99.90
15156;DHT22;7678;50.058;8.306;2023-09-19T07:05:31;16.00;99.90
15156;DHT22;7678;50.058;8.306;2023-09-19T07:08:00;16.00;99.90
15156;DHT22;7678;50.058;8.306;2023-09-19T07:10:28;16.10;99.90
15156;DHT22;7678;50.058;8.306;2023-09-19T07:12:57;16.20;99.90
15156;DHT22;7678;50.058;8.306;2023-09-19T07:15:26;16.20;99.90
15156;DHT22;7678;50.058;8.306;2023-09-19T07:17:55;16.20;99.90
15156;DHT22;7678;50.058;8.306;2023-09-19T07:20:25;16.20;99.90
15156;DHT22;7678;50.058;8.306;2023-09-19T07:22:54;16.30;99.90
15156;DHT22;7678;50.058;8.306;2023-09-19T07:25:22;16.30;99.90
15156;DHT22;7678;50.058;8.306;2023-09-19T07:27:51;16.30;99.90
15156;DHT22;7678;50.058;8.306;2023-09-19T07:30:19;16.30;99.90
15156;DHT22;7678;50.058;8.306;2023-09-19T07:32:47;16.40;99.90
15156;DHT22;7678;50.058;8.306;2023-09-19T07:35:16;16.30;99.90
15156;DHT22;7678;50.058;8.306;2023-09-19T07:37:48;16.30;99.90
15156;DHT22;7678;50.058;8.306;2023-09-19T07:40:19;16.40;99.90
15156;DHT22;7678;50.058;8.306;2023-09-19T07:42:50;16.50;99.90
15156;DHT22;7678;50.058;8.306;2023-09-19T07:45:18;16.60;99.90
15156;DHT22;7678;50.058;8.306;2023-09-19T07:47:46;16.60;99.90
15156;DHT22;7678;50.058;8.306;2023-09-19T07:50:17;16.60;99.90
15156;DHT22;7678;50.058;8.306;2023-09-19T07:52:49;16.60;99.90
15156;DHT22;7678;50.058;8.306;2023-09-19T07:55:19;16.70;99.90
15156;DHT22;7678;50.058;8.306;2023-09-19T07:57:51;16.90;99.90
15156;DHT22;7678;50.058;8.306;2023-09-19T08:00:21;16.70;99.90
15156;DHT22;7678;50.058;8.306;2023-09-19T08:02:49;16.70;99.90
15156;DHT22;7678;50.058;8.306;2023-09-19T08:05:29;16.90;99.90
15156;DHT22;7678;50.058;8.306;2023-09-19T08:08:01;16.70;99.90
15156;DHT22;7678;50.058;8.306;2023-09-19T08:40:24;17.50;99.90
15156;DHT22;7678;50.058;8.306;2023-09-19T08:42:59;17.80;99.90
15156;DHT22;7678;50.058;8.306;2023-09-19T08:45:29;17.80;99.90
15156;DHT22;7678;50.058;8.306;2023-09-19T08:48:10;17.60;99.90
15156;DHT22;7678;50.058;8.306;2023-09-19T08:50:43;17.40;99.90
15156;DHT22;7678;50.058;8.306;2023-09-19T08:53:21;17.60;99.90
15156;DHT22;7678;50.058;8.306;2023-09-19T08:55:51;17.50;99.90
15156;DHT22;7678;50.058;8.306;2023-09-19T08:58:26;17.50;99.90
15156;DHT22;7678;50.058;8.306;2023-09-19T09:00:58;17.50;99.90
15156;DHT22;7678;50.058;8.306;2023-09-19T09:03:32;17.60;99.90
15156;DHT22;7678;50.058;8.306;2023-09-19T09:06:04;17.70;99.90
15156;DHT22;7678;50.058;8.306;2023-09-19T09:08:32;17.50;99.90
15156;DHT22;7678;50.058;8.306;2023-09-19T09:11:00;17.70;99.90
15156;DHT22;7678;50.058;8.306;2023-09-19T09:13:30;17.50;99.90
15156;DHT22;7678;50.058;8.306;2023-09-19T09:15:59;17.60;99.90
15156;DHT22;7678;50.058;8.306;2023-09-19T09:18:30;17.60;99.90
15156;DHT22;7678;50.058;8.306;2023-09-19T09:20:58;17.60;99.90
15156;DHT22;7678;50.058;8.306;2023-09-19T09:23:37;17.50;99.90
15156;DHT22;7678;50.058;8.306;2023-09-19T09:26:05;17.50;99.90
15156;DHT22;7678;50.058;8.306;2023-09-19T09:28:44;17.70;99.90
15156;DHT22;7678;50.058;8.306;2023-09-19T09:31:22;17.70;99.90
15156;DHT22;7678;50.058;8.306;2023-09-19T09:33:54;17.70;99.90
15156;DHT22;7678;50.058;8.306;2023-09-19T09:36:34;17.90;99.90
15156;DHT22;7678;50.058;8.306;2023-09-19T09:39:03;17.90;99.90
15156;DHT22;7678;50.058;8.306;2023-09-19T09:41:43;18.10;99.90
15156;DHT22;7678;50.058;8.306;2023-09-19T09:44:15;18.00;99.90
15156;DHT22;7678;50.058;8.306;2023-09-19T09:46:45;18.00;99.90
15156;DHT22;7678;50.058;8.306;2023-09-19T09:49:47;17.90;99.90
15156;DHT22;7678;50.058;8.306;2023-09-19T09:52:21;18.20;99.90
15156;DHT22;7678;50.058;8.306;2023-09-19T09:55:01;18.20;99.90
15156;DHT22;7678;50.058;8.306;2023-09-19T09:57:33;18.20;99.90
15156;DHT22;7678;50.058;8.306;2023-09-19T10:00:04;18.50;99.90
15156;DHT22;7678;50.058;8.306;2023-09-19T10:02:47;18.40;98.00
15156;DHT22;7678;50.058;8.306;2023-09-19T10:05:19;18.30;98.90
15156;DHT22;7678;50.058;8.306;2023-09-19T10:07:55;18.40;97.20
15156;DHT22;7678;50.058;8.306;2023-09-19T10:10:31;18.50;95.70
15156;DHT22;7678;50.058;8.306;2023-09-19T10:13:21;18.50;96.60
15156;DHT22;7678;50.058;8.306;2023-09-19T10:15:52;18.80;97.40
15156;DHT22;7678;50.058;8.306;2023-09-19T10:18:24;18.60;96.60
15156;DHT22;7678;50.058;8.306;2023-09-19T10:20:52;18.50;96.70
15156;DHT22;7678;50.058;8.306;2023-09-19T10:23:22;18.40;96.40
15156;DHT22;7678;50.058;8.306;2023-09-19T10:25:53;18.60;98.10
15156;DHT22;7678;50.058;8.306;2023-09-19T10:28:22;18.70;95.40
15156;DHT22;7678;50.058;8.306;2023-09-19T10:30:52;18.90;95.60
15156;DHT22;7678;50.058;8.306;2023-09-19T10:33:21;18.90;93.50
15156;DHT22;7678;50.058;8.306;2023-09-19T10:35:53;18.90;93.60
15156;DHT22;7678;50.058;8.306;2023-09-19T10:38:27;18.90;93.50
15156;DHT22;7678;50.058;8.306;2023-09-19T10:40:57;18.80;92.80
15156;DHT22;7678;50.058;8.306;2023-09-19T10:43:31;18.80;92.50
15156;DHT22;7678;50.058;8.306;2023-09-19T10:46:07;19.00;90.80
15156;DHT22;7678;50.058;8.306;2023-09-19T10:48:43;19.20;89.80
15156;DHT22;7678;50.058;8.306;2023-09-19T10:51:22;19.10;90.40
15156;DHT22;7678;50.058;8.306;2023-09-19T10:53:54;19.30;90.00
15156;DHT22;7678;50.058;8.306;2023-09-19T10:56:27;19.50;91.40
15156;DHT22;7678;50.058;8.306;2023-09-19T10:59:06;19.60;91.10
15156;DHT22;7678;50.058;8.306;2023-09-19T11:01:50;19.60;88.10
15156;DHT22;7678;50.058;8.306;2023-09-19T11:04:24;19.40;86.00
15156;DHT22;7678;50.058;8.306;2023-09-19T11:07:04;19.40;88.10
15156;DHT22;7678;50.058;8.306;2023-09-19T11:09:48;19.50;89.10
15156;DHT22;7678;50.058;8.306;2023-09-19T11:12:48;19.60;90.80
15156;DHT22;7678;50.058;8.306;2023-09-19T11:18:53;19.60;88.10
15156;DHT22;7678;50.058;8.306;2023-09-19T11:21:52;19.90;88.80
15156;DHT22;7678;50.058;8.306;2023-09-19T11:24:31;19.90;85.20
15156;DHT22;7678;50.058;8.306;2023-09-19T11:27:13;19.80;82.00
15156;DHT22;7678;50.058;8.306;2023-09-19T11:29:44;20.10;79.90
15156;DHT22;7678;50.058;8.306;2023-09-19T11:32:13;20.20;78.70
15156;DHT22;7678;50.058;8.306;2023-09-19T11:34:50;20.10;78.70
15156;DHT22;7678;50.058;8.306;2023-09-19T11:40:29;20.30;79.40
15156;DHT22;7678;50.058;8.306;2023-09-19T11:42:58;20.00;76.90
15156;DHT22;7678;50.058;8.306;2023-09-19T11:46:04;20.10;77.50
15156;DHT22;7678;50.058;8.306;2023-09-19T11:48:32;20.40;76.00
15156;DHT22;7678;50.058;8.306;2023-09-19T11:51:17;20.40;74.70
15156;DHT22;7678;50.058;8.306;2023-09-19T11:53:55;20.50;74.60
15156;DHT22;7678;50.058;8.306;2023-09-19T11:56:24;20.30;75.10
15156;DHT22;7678;50.058;8.306;2023-09-19T11:58:56;20.20;75.30
15156;DHT22;7678;50.058;8.306;2023-09-19T12:01:29;20.30;76.00
15156;DHT22;7678;50.058;8.306;2023-09-19T12:04:00;20.40;74.70
15156;DHT22;7678;50.058;8.306;2023-09-19T12:06:33;20.80;76.90
15156;DHT22;7678;50.058;8.306;2023-09-19T12:09:03;20.60;73.30
15156;DHT22;7678;50.058;8.306;2023-09-19T12:11:41;20.70;76.80
15156;DHT22;7678;50.058;8.306;2023-09-19T12:14:11;21.00;75.50
15156;DHT22;7678;50.058;8.306;2023-09-19T12:16:40;20.90;71.30
15156;DHT22;7678;50.058;8.306;2023-09-19T12:19:22;20.80;69.20
15156;DHT22;7678;50.058;8.306;2023-09-19T12:21:57;20.70;71.30
15156;DHT22;7678;50.058;8.306;2023-09-19T12:24:27;20.90;70.20
15156;DHT22;7678;50.058;8.306;2023-09-19T12:27:01;20.90;69.70
15156;DHT22;7678;50.058;8.306;2023-09-19T12:29:41;21.00;70.10
15156;DHT22;7678;50.058;8.306;2023-09-19T12:32:10;21.00;68.50
15156;DHT22;7678;50.058;8.306;2023-09-19T12:34:38;21.10;65.80
15156;DHT22;7678;50.058;8.306;2023-09-19T12:37:12;20.90;65.90
15156;DHT22;7678;50.058;8.306;2023-09-19T12:39:43;21.00;66.50
15156;DHT22;7678;50.058;8.306;2023-09-19T12:42:17;21.20;65.50
15156;DHT22;7678;50.058;8.306;2023-09-19T12:44:46;21.30;65.10
15156;DHT22;7678;50.058;8.306;2023-09-19T12:47:19;21.40;63.90
15156;DHT22;7678;50.058;8.306;2023-09-19T12:50:08;21.20;65.80
15156;DHT22;7678;50.058;8.306;2023-09-19T12:52:44;21.40;65.30
15156;DHT22;7678;50.058;8.306;2023-09-19T12:55:22;21.50;63.30
15156;DHT22;7678;50.058;8.306;2023-09-19T12:58:07;21.40;65.50
15156;DHT22;7678;50.058;8.306;2023-09-19T13:00:37;21.60;65.20
15156;DHT22;7678;50.058;8.306;2023-09-19T13:03:14;21.50;64.10
15156;DHT22;7678;50.058;8.306;2023-09-19T13:05:52;21.20;60.00
15156;DHT22;7678;50.058;8.306;2023-09-19T13:08:32;21.50;62.90
15156;DHT22;7678;50.058;8.306;2023-09-19T13:11:11;21.40;62.50
15156;DHT22;7678;50.058;8.306;2023-09-19T13:13:44;21.20;61.20
15156;DHT22;7678;50.058;8.306;2023-09-19T13:16:16;21.40;63.80
15156;DHT22;7678;50.058;8.306;2023-09-19T13:18:50;21.50;62.60
15156;DHT22;7678;50.058;8.306;2023-09-19T13:21:28;21.70;62.90
15156;DHT22;7678;50.058;8.306;2023-09-19T13:24:21;21.90;62.10
15156;DHT22;7678;50.058;8.306;2023-09-19T13:26:53;21.90;62.90
15156;DHT22;7678;50.058;8.306;2023-09-19T13:29:21;21.90;62.10
15156;DHT22;7678;50.058;8.306;2023-09-19T13:31:51;21.80;61.90
15156;DHT22;7678;50.058;8.306;2023-09-19T13:34:20;21.60;63.20
15156;DHT22;7678;50.058;8.306;2023-09-19T13:36:49;21.20;63.30
15156;DHT22;7678;50.058;8.306;2023-09-19T13:39:19;21.30;62.60
15156;DHT22;7678;50.058;8.306;2023-09-19T13:41:52;21.40;64.40
15156;DHT22;7678;50.058;8.306;2023-09-19T13:44:21;21.40;63.90
15156;DHT22;7678;50.058;8.306;2023-09-19T13:46:50;21.50;63.30
15156;DHT22;7678;50.058;8.306;2023-09-19T13:49:21;21.30;63.20
15156;DHT22;7678;50.058;8.306;2023-09-19T13:51:50;21.40;64.30
15156;DHT22;7678;50.058;8.306;2023-09-19T13:54:20;21.30;63.90
15156;DHT22;7678;50.058;8.306;2023-09-19T13:56:48;21.30;63.00
15156;DHT22;7678;50.058;8.306;2023-09-19T13:59:17;21.40;62.80
15156;DHT22;7678;50.058;8.306;2023-09-19T14:01:45;21.60;63.30
15156;DHT22;7678;50.058;8.306;2023-09-19T14:04:13;21.60;62.20
15156;DHT22;7678;50.058;8.306;2023-09-19T14:06:42;21.50;62.10
15156;DHT22;7678;50.058;8.306;2023-09-19T14:09:11;21.40;62.50
15156;DHT22;7678;50.058;8.306;2023-09-19T14:11:41;21.20;63.80
15156;DHT22;7678;50.058;8.306;2023-09-19T14:14:14;21.20;63.30
15156;DHT22;7678;50.058;8.306;2023-09-19T14:16:42;21.20;66.50
15156;DHT22;7678;50.058;8.306;2023-09-19T14:19:11;21.20;64.90
15156;DHT22;7678;50.058;8.306;2023-09-19T14:21:41;21.10;61.70
15156;DHT22;7678;50.058;8.306;2023-09-19T14:24:09;21.10;61.60
15156;DHT22;7678;50.058;8.306;2023-09-19T14:26:40;21.00;63.50
15156;DHT22;7678;50.058;8.306;2023-09-19T14:29:09;21.00;60.50
15156;DHT22;7678;50.058;8.306;2023-09-19T14:31:40;21.00;62.70
15156;DHT22;7678;50.058;8.306;2023-09-19T14:34:09;20.80;61.20
15156;DHT22;7678;50.058;8.306;2023-09-19T14:36:38;20.90;63.60
15156;DHT22;7678;50.058;8.306;2023-09-19T14:39:06;20.80;63.80
15156;DHT22;7678;50.058;8.306;2023-09-19T14:41:35;20.80;63.50
15156;DHT22;7678;50.058;8.306;2023-09-19T14:44:05;20.70;65.10
15156;DHT22;7678;50.058;8.306;2023-09-19T14:46:35;20.60;63.00
15156;DHT22;7678;50.058;8.306;2023-09-19T14:49:06;20.60;62.90
15156;DHT22;7678;50.058;8.306;2023-09-19T14:51:38;20.70;62.90
15156;DHT22;7678;50.058;8.306;2023-09-19T14:54:07;20.60;63.60
15156;DHT22;7678;50.058;8.306;2023-09-19T14:56:35;20.70;63.10
15156;DHT22;7678;50.058;8.306;2023-09-19T14:59:05;20.60;63.50
15156;DHT22;7678;50.058;8.306;2023-09-19T15:01:34;20.60;64.20
15156;DHT22;7678;50.058;8.306;2023-09-19T15:04:03;20.60;66.50
15156;DHT22;7678;50.058;8.306;2023-09-19T15:06:31;20.60;63.90
15156;DHT22;7678;50.058;8.306;2023-09-19T15:08:59;20.60;65.30
15156;DHT22;7678;50.058;8.306;2023-09-19T15:11:28;20.80;65.60
15156;DHT22;7678;50.058;8.306;2023-09-19T15:13:57;20.80;65.20
15156;DHT22;7678;50.058;8.306;2023-09-19T15:16:27;21.00;65.40
15156;DHT22;7678;50.058;8.306;2023-09-19T15:18:55;21.10;66.60
15156;DHT22;7678;50.058;8.306;2023-09-19T15:21:23;21.20;67.10
15156;DHT22;7678;50.058;8.306;2023-09-19T15:23:52;21.40;67.10
15156;DHT22;7678;50.058;8.306;2023-09-19T15:26:20;21.40;65.50
15156;DHT22;7678;50.058;8.306;2023-09-19T15:28:49;21.20;65.80
15156;DHT22;7678;50.058;8.306;2023-09-19T15:31:17;21.30;64.80
15156;DHT22;7678;50.058;8.306;2023-09-19T15:33:47;21.30;64.50
15156;DHT22;7678;50.058;8.306;2023-09-19T15:36:16;21.20;65.00
15156;DHT22;7678;50.058;8.306;2023-09-19T15:38:56;21.10;64.40
15156;DHT22;7678;50.058;8.306;2023-09-19T15:41:26;21.20;68.10
15156;DHT22;7678;50.058;8.306;2023-09-19T15:43:55;21.30;65.80
15156;DHT22;7678;50.058;8.306;2023-09-19T15:46:23;21.10;67.60
15156;DHT22;7678;50.058;8.306;2023-09-19T15:48:55;21.10;68.40
15156;DHT22;7678;50.058;8.306;2023-09-19T15:51:23;21.10;66.80
15156;DHT22;7678;50.058;8.306;2023-09-19T15:53:53;21.10;67.00
15156;DHT22;7678;50.058;8.306;2023-09-19T15:56:23;21.00;67.40
15156;DHT22;7678;50.058;8.306;2023-09-19T15:58:52;20.90;68.20
15156;DHT22;7678;50.058;8.306;2023-09-19T16:01:21;20.80;68.60
15156;DHT22;7678;50.058;8.306;2023-09-19T16:03:51;20.90;70.00
15156;DHT22;7678;50.058;8.306;2023-09-19T16:06:22;20.90;69.80
15156;DHT22;7678;50.058;8.306;2023-09-19T16:08:54;20.80;69.40
15156;DHT22;7678;50.058;8.306;2023-09-19T16:11:25;20.70;71.20
15156;DHT22;7678;50.058;8.306;2023-09-19T16:13:54;20.70;71.30
15156;DHT22;7678;50.058;8.306;2023-09-19T16:16:23;20.60;72.50
15156;DHT22;7678;50.058;8.306;2023-09-19T16:18:53;20.60;71.70
15156;DHT22;7678;50.058;8.306;2023-09-19T16:21:25;20.60;72.40
15156;DHT22;7678;50.058;8.306;2023-09-19T16:23:55;20.50;71.50
15156;DHT22;7678;50.058;8.306;2023-09-19T16:26:24;20.40;72.20
15156;DHT22;7678;50.058;8.306;2023-09-19T16:28:54;20.40;72.80
15156;DHT22;7678;50.058;8.306;2023-09-19T16:31:25;20.40;74.20
15156;DHT22;7678;50.058;8.306;2023-09-19T16:33:56;20.40;73.40
15156;DHT22;7678;50.058;8.306;2023-09-19T16:36:28;20.40;73.70
15156;DHT22;7678;50.058;8.306;2023-09-19T16:39:00;20.30;73.90
15156;DHT22;7678;50.058;8.306;2023-09-19T16:41:37;20.20;73.90
15156;DHT22;7678;50.058;8.306;2023-09-19T16:44:05;20.10;75.20
15156;DHT22;7678;50.058;8.306;2023-09-19T16:46:35;20.20;75.30
15156;DHT22;7678;50.058;8.306;2023-09-19T16:49:06;20.10;76.20
15156;DHT22;7678;50.058;8.306;2023-09-19T16:51:37;20.10;77.00
15156;DHT22;7678;50.058;8.306;2023-09-19T16:54:08;20.10;77.30
15156;DHT22;7678;50.058;8.306;2023-09-19T16:56:39;20.00;77.10
15156;DHT22;7678;50.058;8.306;2023-09-19T16:59:07;20.10;77.30
15156;DHT22;7678;50.058;8.306;2023-09-19T17:01:39;20.00;78.30
15156;DHT22;7678;50.058;8.306;2023-09-19T17:04:08;20.00;78.40
15156;DHT22;7678;50.058;8.306;2023-09-19T17:06:37;20.00;79.30
15156;DHT22;7678;50.058;8.306;2023-09-19T17:09:08;19.90;80.90
15156;DHT22;7678;50.058;8.306;2023-09-19T17:11:38;19.80;80.90
15156;DHT22;7678;50.058;8.306;2023-09-19T17:14:06;19.90;81.80
15156;DHT22;7678;50.058;8.306;2023-09-19T17:16:39;20.00;80.80
15156;DHT22;7678;50.058;8.306;2023-09-19T17:19:10;19.90;82.40
15156;DHT22;7678;50.058;8.306;2023-09-19T17:21:40;20.00;81.00
15156;DHT22;7678;50.058;8.306;2023-09-19T17:24:08;20.00;81.90
15156;DHT22;7678;50.058;8.306;2023-09-19T17:26:39;20.10;81.80
15156;DHT22;7678;50.058;8.306;2023-09-19T17:29:09;20.00;82.10
15156;DHT22;7678;50.058;8.306;2023-09-19T17:31:39;19.90;82.90
15156;DHT22;7678;50.058;8.306;2023-09-19T17:34:08;19.90;83.60
15156;DHT22;7678;50.058;8.306;2023-09-19T17:36:36;19.80;83.70
15156;DHT22;7678;50.058;8.306;2023-09-19T17:39:06;19.90;84.10
15156;DHT22;7678;50.058;8.306;2023-09-19T17:41:38;19.80;84.50
15156;DHT22;7678;50.058;8.306;2023-09-19T17:44:07;19.60;86.30
15156;DHT22;7678;50.058;8.306;2023-09-19T17:46:38;19.60;85.70
15156;DHT22;7678;50.058;8.306;2023-09-19T17:49:06;19.60;87.00
15156;DHT22;7678;50.058;8.306;2023-09-19T17:51:35;19.50;87.10
15156;DHT22;7678;50.058;8.306;2023-09-19T17:54:03;19.50;87.80
15156;DHT22;7678;50.058;8.306;2023-09-19T17:56:36;19.60;87.80
15156;DHT22;7678;50.058;8.306;2023-09-19T17:59:09;19.40;88.90
15156;DHT22;7678;50.058;8.306;2023-09-19T18:01:39;19.40;89.60
15156;DHT22;7678;50.058;8.306;2023-09-19T18:04:12;19.30;90.40
15156;DHT22;7678;50.058;8.306;2023-09-19T18:06:52;19.10;90.60
15156;DHT22;7678;50.058;8.306;2023-09-19T18:09:31;19.20;90.30
15156;DHT22;7678;50.058;8.306;2023-09-19T18:12:10;19.00;90.40
15156;DHT22;7678;50.058;8.306;2023-09-19T18:14:40;19.00;90.90
15156;DHT22;7678;50.058;8.306;2023-09-19T18:17:10;18.90;91.60
15156;DHT22;7678;50.058;8.306;2023-09-19T18:19:40;18.80;91.80
15156;DHT22;7678;50.058;8.306;2023-09-19T18:22:08;18.80;91.60
15156;DHT22;7678;50.058;8.306;2023-09-19T18:24:38;18.80;92.30
15156;DHT22;7678;50.058;8.306;2023-09-19T18:27:06;18.70;92.20
15156;DHT22;7678;50.058;8.306;2023-09-19T18:29:36;18.60;92.60
15156;DHT22;7678;50.058;8.306;2023-09-19T18:32:09;18.50;93.60
15156;DHT22;7678;50.058;8.306;2023-09-19T18:34:37;18.50;93.60
15156;DHT22;7678;50.058;8.306;2023-09-19T18:37:05;18.50;93.60
15156;DHT22;7678;50.058;8.306;2023-09-19T18:39:36;18.60;92.90
15156;DHT22;7678;50.058;8.306;2023-09-19T18:42:04;18.70;93.30
15156;DHT22;7678;50.058;8.306;2023-09-19T18:44:36;18.50;94.00
15156;DHT22;7678;50.058;8.306;2023-09-19T18:47:15;18.40;94.10
15156;DHT22;7678;50.058;8.306;2023-09-19T18:49:44;18.20;94.30
15156;DHT22;7678;50.058;8.306;2023-09-19T18:52:12;18.20;95.10
15156;DHT22;7678;50.058;8.306;2023-09-19T18:54:44;18.20;95.30
15156;DHT22;7678;50.058;8.306;2023-09-19T18:57:12;18.10;95.80
15156;DHT22;7678;50.058;8.306;2023-09-19T18:59:44;18.00;96.20
15156;DHT22;7678;50.058;8.306;2023-09-19T19:02:12;17.90;97.30
15156;DHT22;7678;50.058;8.306;2023-09-19T19:04:40;17.80;97.20
15156;DHT22;7678;50.058;8.306;2023-09-19T19:07:08;17.80;98.50
15156;DHT22;7678;50.058;8.306;2023-09-19T19:09:41;17.80;99.00
15156;DHT22;7678;50.058;8.306;2023-09-19T19:12:10;17.70;99.10
15156;DHT22;7678;50.058;8.306;2023-09-19T19:14:38;17.90;99.40
15156;DHT22;7678;50.058;8.306;2023-09-19T19:17:08;17.80;99.60
15156;DHT22;7678;50.058;8.306;2023-09-19T19:19:38;17.60;99.90
15156;DHT22;7678;50.058;8.306;2023-09-19T19:22:09;17.50;99.90
15156;DHT22;7678;50.058;8.306;2023-09-19T19:24:37;17.40;99.90
15156;DHT22;7678;50.058;8.306;2023-09-19T19:27:05;17.50;99.90
15156;DHT22;7678;50.058;8.306;2023-09-19T19:29:34;17.30;99.90
15156;DHT22;7678;50.058;8.306;2023-09-19T19:32:02;17.30;99.90
15156;DHT22;7678;50.058;8.306;2023-09-19T19:34:32;17.30;99.90
15156;DHT22;7678;50.058;8.306;2023-09-19T19:37:03;17.20;99.90
15156;DHT22;7678;50.058;8.306;2023-09-19T19:39:32;17.20;99.90
15156;DHT22;7678;50.058;8.306;2023-09-19T19:42:01;17.10;99.90
15156;DHT22;7678;50.058;8.306;2023-09-19T19:44:29;17.00;99.90
15156;DHT22;7678;50.058;8.306;2023-09-19T19:46:57;16.90;99.90
15156;DHT22;7678;50.058;8.306;2023-09-19T19:49:26;17.00;99.90
15156;DHT22;7678;50.058;8.306;2023-09-19T19:51:55;16.80;99.90
15156;DHT22;7678;50.058;8.306;2023-09-19T19:54:24;16.80;99.90
15156;DHT22;7678;50.058;8.306;2023-09-19T19:56:52;16.70;99.90
15156;DHT22;7678;50.058;8.306;2023-09-19T19:59:20;16.70;99.90
15156;DHT22;7678;50.058;8.306;2023-09-19T20:01:48;16.80;99.90
15156;DHT22;7678;50.058;8.306;2023-09-19T20:04:16;16.80;99.90
15156;DHT22;7678;50.058;8.306;2023-09-19T20:06:45;16.80;99.90
15156;DHT22;7678;50.058;8.306;2023-09-19T20:09:14;16.90;99.90
15156;DHT22;7678;50.058;8.306;2023-09-19T20:11:42;16.90;99.90
15156;DHT22;7678;50.058;8.306;2023-09-19T20:14:10;16.90;99.90
15156;DHT22;7678;50.058;8.306;2023-09-19T20:16:39;16.90;99.90
15156;DHT22;7678;50.058;8.306;2023-09-19T20:19:08;16.90;99.90
15156;DHT22;7678;50.058;8.306;2023-09-19T20:21:37;17.00;99.90
15156;DHT22;7678;50.058;8.306;2023-09-19T20:24:07;16.90;99.90
15156;DHT22;7678;50.058;8.306;2023-09-19T20:26:39;16.90;99.90
15156;DHT22;7678;50.058;8.306;2023-09-19T20:29:07;17.00;99.90
15156;DHT22;7678;50.058;8.306;2023-09-19T20:31:36;16.90;99.90
15156;DHT22;7678;50.058;8.306;2023-09-19T20:34:05;16.90;99.90
15156;DHT22;7678;50.058;8.306;2023-09-19T20:36:36;16.90;99.90
15156;DHT22;7678;50.058;8.306;2023-09-19T20:39:07;16.90;99.90
15156;DHT22;7678;50.058;8.306;2023-09-19T20:41:38;16.90;99.90
15156;DHT22;7678;50.058;8.306;2023-09-19T20:44:07;16.90;99.90
15156;DHT22;7678;50.058;8.306;2023-09-19T20:46:36;16.90;99.90
15156;DHT22;7678;50.058;8.306;2023-09-19T20:49:06;16.80;99.90
15156;DHT22;7678;50.058;8.306;2023-09-19T20:51:35;16.80;99.90
15156;DHT22;7678;50.058;8.306;2023-09-19T20:54:06;16.80;99.90
15156;DHT22;7678;50.058;8.306;2023-09-19T20:56:35;16.80;99.90
15156;DHT22;7678;50.058;8.306;2023-09-19T20:59:06;16.80;99.90
15156;DHT22;7678;50.058;8.306;2023-09-19T21:01:35;16.70;99.90
15156;DHT22;7678;50.058;8.306;2023-09-19T21:04:03;16.70;99.90
15156;DHT22;7678;50.058;8.306;2023-09-19T21:06:31;16.60;99.90
15156;DHT22;7678;50.058;8.306;2023-09-19T21:09:01;16.50;99.90
15156;DHT22;7678;50.058;8.306;2023-09-19T21:11:29;16.60;99.90
15156;DHT22;7678;50.058;8.306;2023-09-19T21:13:57;16.60;99.90
15156;DHT22;7678;50.058;8.306;2023-09-19T21:16:27;16.70;99.90
15156;DHT22;7678;50.058;8.306;2023-09-19T21:18:55;16.60;99.90
15156;DHT22;7678;50.058;8.306;2023-09-19T21:21:23;16.50;99.90
15156;DHT22;7678;50.058;8.306;2023-09-19T21:23:51;16.30;99.90
15156;DHT22;7678;50.058;8.306;2023-09-19T21:26:19;16.20;99.90
15156;DHT22;7678;50.058;8.306;2023-09-19T21:28:47;16.10;99.90
15156;DHT22;7678;50.058;8.306;2023-09-19T21:31:17;16.10;99.90
15156;DHT22;7678;50.058;8.306;2023-09-19T21:33:47;16.30;99.90
15156;DHT22;7678;50.058;8.306;2023-09-19T21:36:16;16.10;99.90
15156;DHT22;7678;50.058;8.306;2023-09-19T21:38:49;16.20;99.90
15156;DHT22;7678;50.058;8.306;2023-09-19T21:41:19;16.00;99.90
15156;DHT22;7678;50.058;8.306;2023-09-19T21:43:48;16.00;99.90
15156;DHT22;7678;50.058;8.306;2023-09-19T21:46:17;15.80;99.90
15156;DHT22;7678;50.058;8.306;2023-09-19T21:48:47;15.90;99.90
15156;DHT22;7678;50.058;8.306;2023-09-19T21:51:17;15.90;99.90
15156;DHT22;7678;50.058;8.306;2023-09-19T21:53:45;16.00;99.90
15156;DHT22;7678;50.058;8.306;2023-09-19T21:56:16;16.00;99.90
15156;DHT22;7678;50.058;8.306;2023-09-19T21:58:45;16.00;99.90
15156;DHT22;7678;50.058;8.306;2023-09-19T22:01:13;15.90;99.90
15156;DHT22;7678;50.058;8.306;2023-09-19T22:03:50;16.10;99.90
15156;DHT22;7678;50.058;8.306;2023-09-19T22:06:20;16.10;99.90
15156;DHT22;7678;50.058;8.306;2023-09-19T22:08:49;16.00;99.90
15156;DHT22;7678;50.058;8.306;2023-09-19T22:11:18;16.00;99.90
15156;DHT22;7678;50.058;8.306;2023-09-19T22:13:48;16.00;99.90
15156;DHT22;7678;50.058;8.306;2023-09-19T22:16:17;16.10;99.90
15156;DHT22;7678;50.058;8.306;2023-09-19T22:18:46;16.10;99.90
15156;DHT22;7678;50.058;8.306;2023-09-19T22:21:17;16.10;99.90
15156;DHT22;7678;50.058;8.306;2023-09-19T22:23:50;16.10;99.90
15156;DHT22;7678;50.058;8.306;2023-09-19T22:26:21;16.10;99.90
15156;DHT22;7678;50.058;8.306;2023-09-19T22:28:51;16.10;99.90